Decoded Metar for YPDN (DARWIN (CIV/MIL) in AUSTRALIA) (IATA:N/A) | Meteo·Mobile Aviation Weather
aviador You're here:

YPDN Decoded Metar

DARWIN (CIV/MIL) in AUSTRALIA
Report Time2019-01-20 10:00:00
UTC Time2019-01-20 10:47:40
Flight Rules vfr VFR
Wind110° at 03 kt
W.Decomp.*RWY 11: 3.0 kt HW 0.1 kt LCW
RWY 18: 0.9 kt HW 2.9 kt LCW
W.Rank110° ranks 8
Current wind is below 110° avg. (7.6)
Visibility9999 m
Phenomena:Thuderstorm Rain
Light Rain
Clouds:Broken 010 Hf
Few 020 Hf
Scattered 086 Hf
Broken 185 Hf
Expected CloudBase > 1,200 ft AGL from Temp-Dew spread
Ceiling18,500 ft
Temp28°C (ISA +13)
Dew Point25°C (84% RH)
Heat Index32.7°C
QNH1006 hPa
Density Alt2,267 ft
Elevation98 ft
Report Wrong Elevation
Raw Report
METAR YPDN 201000Z 11003KT 9999 -RA FEW020 SCT086 BKN185 28/25 Q1006
TEMPO 1100/1230 VRB25G40KT 1000 TSRA BKN010 SCT020CB=

Extra information for YPDN:More info

Metar Taf Metar & Taf Last 4 Metars F.Rules Stats Wind Profile Meteogram Temp Stats Airport Information Weather charts Add Link Nearby VenuesMetar ALERT Operation Metar Decoded Social comments